sensor_id;sensor_type;location;lat;lon;timestamp;P1;durP1;ratioP1;P2;durP2;ratioP2
24619;SDS011;12763;55.802;37.404;2023-11-22T00:01:51;8.68;;;4.07;;
24619;SDS011;12763;55.802;37.404;2023-11-22T00:04:17;12.00;;;3.83;;
24619;SDS011;12763;55.802;37.404;2023-11-22T00:06:43;8.57;;;3.80;;
24619;SDS011;12763;55.802;37.404;2023-11-22T00:09:09;7.60;;;4.13;;
24619;SDS011;12763;55.802;37.404;2023-11-22T00:11:35;9.05;;;3.90;;
24619;SDS011;12763;55.802;37.404;2023-11-22T00:14:01;7.97;;;3.65;;
24619;SDS011;12763;55.802;37.404;2023-11-22T00:16:28;9.07;;;3.75;;
24619;SDS011;12763;55.802;37.404;2023-11-22T00:18:55;8.63;;;3.60;;
24619;SDS011;12763;55.802;37.404;2023-11-22T00:21:21;10.15;;;3.53;;
24619;SDS011;12763;55.802;37.404;2023-11-22T00:23:47;6.78;;;3.67;;
24619;SDS011;12763;55.802;37.404;2023-11-22T00:26:13;8.23;;;3.67;;
24619;SDS011;12763;55.802;37.404;2023-11-22T00:28:42;13.63;;;3.65;;
24619;SDS011;12763;55.802;37.404;2023-11-22T00:31:07;8.38;;;3.88;;
24619;SDS011;12763;55.802;37.404;2023-11-22T00:33:33;9.23;;;3.72;;
24619;SDS011;12763;55.802;37.404;2023-11-22T00:36:00;8.65;;;3.78;;
24619;SDS011;12763;55.802;37.404;2023-11-22T00:38:29;6.95;;;3.75;;
24619;SDS011;12763;55.802;37.404;2023-11-22T00:40:55;9.60;;;4.65;;
24619;SDS011;12763;55.802;37.404;2023-11-22T00:43:22;11.00;;;4.13;;
24619;SDS011;12763;55.802;37.404;2023-11-22T00:45:47;7.25;;;3.83;;
24619;SDS011;12763;55.802;37.404;2023-11-22T00:48:13;6.97;;;3.63;;
24619;SDS011;12763;55.802;37.404;2023-11-22T00:50:39;7.13;;;3.45;;
24619;SDS011;12763;55.802;37.404;2023-11-22T00:53:05;13.07;;;4.20;;
24619;SDS011;12763;55.802;37.404;2023-11-22T00:55:32;8.60;;;3.50;;
24619;SDS011;12763;55.802;37.404;2023-11-22T00:57:58;9.32;;;3.60;;
24619;SDS011;12763;55.802;37.404;2023-11-22T01:00:29;10.52;;;3.58;;
24619;SDS011;12763;55.802;37.404;2023-11-22T01:02:55;10.50;;;4.30;;
24619;SDS011;12763;55.802;37.404;2023-11-22T01:05:21;8.05;;;3.38;;
24619;SDS011;12763;55.802;37.404;2023-11-22T01:07:48;9.30;;;4.55;;
24619;SDS011;12763;55.802;37.404;2023-11-22T01:10:13;11.23;;;4.40;;
24619;SDS011;12763;55.802;37.404;2023-11-22T01:12:41;6.45;;;3.30;;
24619;SDS011;12763;55.802;37.404;2023-11-22T01:15:07;13.98;;;4.47;;
24619;SDS011;12763;55.802;37.404;2023-11-22T01:17:34;16.60;;;4.25;;
24619;SDS011;12763;55.802;37.404;2023-11-22T01:20:01;10.00;;;3.92;;
24619;SDS011;12763;55.802;37.404;2023-11-22T01:22:30;8.82;;;3.75;;
24619;SDS011;12763;55.802;37.404;2023-11-22T01:24:58;6.63;;;2.90;;
24619;SDS011;12763;55.802;37.404;2023-11-22T01:27:24;9.48;;;4.05;;
24619;SDS011;12763;55.802;37.404;2023-11-22T01:29:50;9.57;;;4.00;;
24619;SDS011;12763;55.802;37.404;2023-11-22T01:32:16;8.85;;;4.30;;
24619;SDS011;12763;55.802;37.404;2023-11-22T01:34:42;9.15;;;3.85;;
24619;SDS011;12763;55.802;37.404;2023-11-22T01:37:08;10.07;;;4.18;;
24619;SDS011;12763;55.802;37.404;2023-11-22T01:39:34;10.40;;;4.10;;
24619;SDS011;12763;55.802;37.404;2023-11-22T01:42:00;7.95;;;2.88;;
24619;SDS011;12763;55.802;37.404;2023-11-22T01:44:26;5.68;;;2.70;;
24619;SDS011;12763;55.802;37.404;2023-11-22T01:46:52;9.20;;;3.75;;
24619;SDS011;12763;55.802;37.404;2023-11-22T01:49:18;8.38;;;4.13;;
24619;SDS011;12763;55.802;37.404;2023-11-22T01:51:44;12.82;;;3.83;;
24619;SDS011;12763;55.802;37.404;2023-11-22T01:54:10;5.47;;;2.75;;
24619;SDS011;12763;55.802;37.404;2023-11-22T01:56:37;12.82;;;3.72;;
24619;SDS011;12763;55.802;37.404;2023-11-22T01:59:04;6.53;;;3.78;;
24619;SDS011;12763;55.802;37.404;2023-11-22T02:01:30;11.23;;;4.00;;
24619;SDS011;12763;55.802;37.404;2023-11-22T02:03:57;5.63;;;3.13;;
24619;SDS011;12763;55.802;37.404;2023-11-22T02:06:23;6.55;;;2.72;;
24619;SDS011;12763;55.802;37.404;2023-11-22T02:08:50;9.48;;;3.60;;
24619;SDS011;12763;55.802;37.404;2023-11-22T02:11:17;9.95;;;3.90;;
24619;SDS011;12763;55.802;37.404;2023-11-22T02:13:48;9.57;;;3.85;;
24619;SDS011;12763;55.802;37.404;2023-11-22T02:16:16;6.97;;;2.95;;
24619;SDS011;12763;55.802;37.404;2023-11-22T02:18:45;6.03;;;3.15;;
24619;SDS011;12763;55.802;37.404;2023-11-22T02:21:31;10.95;;;4.20;;
24619;SDS011;12763;55.802;37.404;2023-11-22T02:23:57;7.38;;;3.53;;
24619;SDS011;12763;55.802;37.404;2023-11-22T02:26:22;18.55;;;4.10;;
24619;SDS011;12763;55.802;37.404;2023-11-22T02:28:50;7.85;;;2.28;;
24619;SDS011;12763;55.802;37.404;2023-11-22T02:31:16;7.65;;;3.50;;
24619;SDS011;12763;55.802;37.404;2023-11-22T02:33:43;11.05;;;3.70;;
24619;SDS011;12763;55.802;37.404;2023-11-22T02:36:10;5.85;;;2.90;;
24619;SDS011;12763;55.802;37.404;2023-11-22T02:38:38;4.53;;;2.47;;
24619;SDS011;12763;55.802;37.404;2023-11-22T02:41:03;8.13;;;3.42;;
24619;SDS011;12763;55.802;37.404;2023-11-22T02:43:30;12.90;;;4.60;;
24619;SDS011;12763;55.802;37.404;2023-11-22T02:45:56;6.15;;;2.33;;
24619;SDS011;12763;55.802;37.404;2023-11-22T02:48:23;10.07;;;3.55;;
24619;SDS011;12763;55.802;37.404;2023-11-22T02:50:49;10.75;;;3.95;;
24619;SDS011;12763;55.802;37.404;2023-11-22T02:53:15;5.32;;;3.38;;
24619;SDS011;12763;55.802;37.404;2023-11-22T02:55:42;11.73;;;3.42;;
24619;SDS011;12763;55.802;37.404;2023-11-22T02:58:08;7.30;;;3.20;;
24619;SDS011;12763;55.802;37.404;2023-11-22T03:00:34;5.63;;;2.40;;
24619;SDS011;12763;55.802;37.404;2023-11-22T03:03:00;7.85;;;3.38;;
24619;SDS011;12763;55.802;37.404;2023-11-22T03:05:26;6.00;;;3.08;;
24619;SDS011;12763;55.802;37.404;2023-11-22T03:07:52;8.18;;;3.10;;
24619;SDS011;12763;55.802;37.404;2023-11-22T03:10:18;11.50;;;3.88;;
24619;SDS011;12763;55.802;37.404;2023-11-22T03:12:44;9.38;;;3.90;;
24619;SDS011;12763;55.802;37.404;2023-11-22T03:15:10;4.53;;;2.42;;
24619;SDS011;12763;55.802;37.404;2023-11-22T03:17:37;6.05;;;2.95;;
24619;SDS011;12763;55.802;37.404;2023-11-22T03:20:04;8.02;;;3.25;;
24619;SDS011;12763;55.802;37.404;2023-11-22T03:22:36;13.02;;;3.85;;
24619;SDS011;12763;55.802;37.404;2023-11-22T03:25:03;8.65;;;3.90;;
24619;SDS011;12763;55.802;37.404;2023-11-22T03:27:32;8.95;;;3.65;;
24619;SDS011;12763;55.802;37.404;2023-11-22T03:29:59;7.00;;;3.55;;
24619;SDS011;12763;55.802;37.404;2023-11-22T03:32:25;10.38;;;3.80;;
24619;SDS011;12763;55.802;37.404;2023-11-22T03:34:52;9.48;;;4.18;;
24619;SDS011;12763;55.802;37.404;2023-11-22T03:37:17;10.00;;;3.20;;
24619;SDS011;12763;55.802;37.404;2023-11-22T03:39:44;10.48;;;3.88;;
24619;SDS011;12763;55.802;37.404;2023-11-22T03:42:14;6.82;;;3.55;;
24619;SDS011;12763;55.802;37.404;2023-11-22T03:44:45;9.10;;;4.38;;
24619;SDS011;12763;55.802;37.404;2023-11-22T03:47:11;15.45;;;5.30;;
24619;SDS011;12763;55.802;37.404;2023-11-22T03:49:39;11.60;;;4.30;;
24619;SDS011;12763;55.802;37.404;2023-11-22T03:52:05;7.32;;;3.38;;
24619;SDS011;12763;55.802;37.404;2023-11-22T03:54:31;11.93;;;3.85;;
24619;SDS011;12763;55.802;37.404;2023-11-22T03:56:58;7.18;;;3.65;;
24619;SDS011;12763;55.802;37.404;2023-11-22T03:59:24;10.75;;;3.92;;
24619;SDS011;12763;55.802;37.404;2023-11-22T04:01:50;12.20;;;3.35;;
24619;SDS011;12763;55.802;37.404;2023-11-22T04:04:19;11.20;;;3.67;;
24619;SDS011;12763;55.802;37.404;2023-11-22T04:06:45;12.93;;;4.13;;
24619;SDS011;12763;55.802;37.404;2023-11-22T04:09:11;14.73;;;4.70;;
24619;SDS011;12763;55.802;37.404;2023-11-22T04:11:38;13.32;;;4.35;;
24619;SDS011;12763;55.802;37.404;2023-11-22T04:14:04;12.30;;;4.47;;
24619;SDS011;12763;55.802;37.404;2023-11-22T04:16:31;8.30;;;3.03;;
24619;SDS011;12763;55.802;37.404;2023-11-22T04:18:57;10.30;;;5.22;;
24619;SDS011;12763;55.802;37.404;2023-11-22T04:21:23;9.70;;;3.33;;
24619;SDS011;12763;55.802;37.404;2023-11-22T04:23:49;6.00;;;3.08;;
24619;SDS011;12763;55.802;37.404;2023-11-22T04:26:15;13.73;;;3.83;;
24619;SDS011;12763;55.802;37.404;2023-11-22T04:28:41;9.75;;;4.70;;
24619;SDS011;12763;55.802;37.404;2023-11-22T04:31:07;15.63;;;4.80;;
24619;SDS011;12763;55.802;37.404;2023-11-22T04:33:36;11.70;;;4.30;;
24619;SDS011;12763;55.802;37.404;2023-11-22T04:36:03;12.48;;;4.78;;
24619;SDS011;12763;55.802;37.404;2023-11-22T04:38:29;14.70;;;4.60;;
24619;SDS011;12763;55.802;37.404;2023-11-22T04:40:56;15.02;;;5.63;;
24619;SDS011;12763;55.802;37.404;2023-11-22T04:43:21;11.25;;;4.38;;
24619;SDS011;12763;55.802;37.404;2023-11-22T04:45:49;16.05;;;5.43;;
24619;SDS011;12763;55.802;37.404;2023-11-22T04:48:15;15.48;;;5.40;;
24619;SDS011;12763;55.802;37.404;2023-11-22T04:50:41;11.40;;;5.20;;
24619;SDS011;12763;55.802;37.404;2023-11-22T04:53:10;8.60;;;4.80;;
24619;SDS011;12763;55.802;37.404;2023-11-22T04:55:36;15.98;;;4.68;;
24619;SDS011;12763;55.802;37.404;2023-11-22T04:58:02;14.73;;;5.88;;
24619;SDS011;12763;55.802;37.404;2023-11-22T05:00:31;17.83;;;5.47;;
24619;SDS011;12763;55.802;37.404;2023-11-22T05:02:57;5.72;;;2.38;;
24619;SDS011;12763;55.802;37.404;2023-11-22T05:05:23;10.13;;;4.43;;
24619;SDS011;12763;55.802;37.404;2023-11-22T05:07:49;8.60;;;3.47;;
24619;SDS011;12763;55.802;37.404;2023-11-22T05:10:15;9.43;;;4.75;;
24619;SDS011;12763;55.802;37.404;2023-11-22T05:12:43;8.35;;;4.28;;
24619;SDS011;12763;55.802;37.404;2023-11-22T05:15:10;12.68;;;4.85;;
24619;SDS011;12763;55.802;37.404;2023-11-22T05:17:37;12.93;;;4.30;;
24619;SDS011;12763;55.802;37.404;2023-11-22T05:20:03;5.90;;;3.40;;
24619;SDS011;12763;55.802;37.404;2023-11-22T05:22:31;11.05;;;5.20;;
24619;SDS011;12763;55.802;37.404;2023-11-22T05:24:57;16.13;;;5.00;;
24619;SDS011;12763;55.802;37.404;2023-11-22T05:27:23;7.57;;;3.60;;
24619;SDS011;12763;55.802;37.404;2023-11-22T05:29:49;6.45;;;3.65;;
24619;SDS011;12763;55.802;37.404;2023-11-22T05:32:18;13.07;;;4.85;;
24619;SDS011;12763;55.802;37.404;2023-11-22T05:34:44;11.48;;;3.72;;
24619;SDS011;12763;55.802;37.404;2023-11-22T05:37:09;10.30;;;3.65;;
24619;SDS011;12763;55.802;37.404;2023-11-22T05:39:35;8.15;;;3.78;;
24619;SDS011;12763;55.802;37.404;2023-11-22T05:42:02;10.90;;;3.58;;
24619;SDS011;12763;55.802;37.404;2023-11-22T05:44:29;5.05;;;2.58;;
24619;SDS011;12763;55.802;37.404;2023-11-22T05:46:55;7.53;;;3.67;;
24619;SDS011;12763;55.802;37.404;2023-11-22T05:49:21;7.03;;;3.22;;
24619;SDS011;12763;55.802;37.404;2023-11-22T05:51:47;9.23;;;3.67;;
24619;SDS011;12763;55.802;37.404;2023-11-22T05:54:13;10.70;;;4.07;;
24619;SDS011;12763;55.802;37.404;2023-11-22T05:56:42;6.20;;;2.83;;
24619;SDS011;12763;55.802;37.404;2023-11-22T05:59:08;7.97;;;2.88;;
24619;SDS011;12763;55.802;37.404;2023-11-22T06:01:34;6.70;;;3.20;;
24619;SDS011;12763;55.802;37.404;2023-11-22T06:04:00;7.25;;;3.40;;
24619;SDS011;12763;55.802;37.404;2023-11-22T06:06:26;7.45;;;3.55;;
24619;SDS011;12763;55.802;37.404;2023-11-22T06:08:52;5.10;;;3.08;;
24619;SDS011;12763;55.802;37.404;2023-11-22T06:11:18;5.32;;;1.90;;
24619;SDS011;12763;55.802;37.404;2023-11-22T06:13:45;4.45;;;2.50;;
24619;SDS011;12763;55.802;37.404;2023-11-22T06:16:13;5.18;;;2.42;;
24619;SDS011;12763;55.802;37.404;2023-11-22T06:18:40;2.80;;;1.80;;
24619;SDS011;12763;55.802;37.404;2023-11-22T06:21:07;4.43;;;1.92;;
24619;SDS011;12763;55.802;37.404;2023-11-22T06:23:34;11.68;;;2.05;;
24619;SDS011;12763;55.802;37.404;2023-11-22T06:26:00;8.90;;;2.38;;
24619;SDS011;12763;55.802;37.404;2023-11-22T06:28:26;4.00;;;2.35;;
24619;SDS011;12763;55.802;37.404;2023-11-22T06:30:52;4.03;;;2.30;;
24619;SDS011;12763;55.802;37.404;2023-11-22T06:33:18;3.55;;;1.73;;
24619;SDS011;12763;55.802;37.404;2023-11-22T06:35:45;3.17;;;1.60;;
24619;SDS011;12763;55.802;37.404;2023-11-22T06:38:11;3.33;;;1.98;;
24619;SDS011;12763;55.802;37.404;2023-11-22T06:40:38;4.43;;;1.95;;
24619;SDS011;12763;55.802;37.404;2023-11-22T06:43:04;1.60;;;1.27;;
24619;SDS011;12763;55.802;37.404;2023-11-22T06:45:30;3.72;;;1.80;;
24619;SDS011;12763;55.802;37.404;2023-11-22T06:48:00;4.40;;;1.90;;
24619;SDS011;12763;55.802;37.404;2023-11-22T06:50:27;4.65;;;1.70;;
24619;SDS011;12763;55.802;37.404;2023-11-22T06:52:52;1.52;;;0.98;;
24619;SDS011;12763;55.802;37.404;2023-11-22T06:55:19;7.82;;;1.50;;
24619;SDS011;12763;55.802;37.404;2023-11-22T06:57:45;5.10;;;1.90;;
24619;SDS011;12763;55.802;37.404;2023-11-22T07:00:12;6.78;;;2.42;;
24619;SDS011;12763;55.802;37.404;2023-11-22T07:02:38;1.33;;;1.20;;
24619;SDS011;12763;55.802;37.404;2023-11-22T07:05:05;2.08;;;1.58;;
24619;SDS011;12763;55.802;37.404;2023-11-22T07:07:38;4.75;;;1.70;;
24619;SDS011;12763;55.802;37.404;2023-11-22T07:10:05;1.55;;;1.35;;
24619;SDS011;12763;55.802;37.404;2023-11-22T07:12:33;3.35;;;1.70;;
24619;SDS011;12763;55.802;37.404;2023-11-22T07:15:03;2.78;;;1.70;;
24619;SDS011;12763;55.802;37.404;2023-11-22T07:17:34;3.70;;;1.80;;
24619;SDS011;12763;55.802;37.404;2023-11-22T07:20:01;6.93;;;2.00;;
24619;SDS011;12763;55.802;37.404;2023-11-22T07:22:32;3.25;;;1.80;;
24619;SDS011;12763;55.802;37.404;2023-11-22T07:24:59;3.00;;;1.77;;
24619;SDS011;12763;55.802;37.404;2023-11-22T07:27:32;4.53;;;2.20;;
24619;SDS011;12763;55.802;37.404;2023-11-22T07:29:58;5.90;;;1.95;;
24619;SDS011;12763;55.802;37.404;2023-11-22T07:32:25;5.20;;;1.77;;
24619;SDS011;12763;55.802;37.404;2023-11-22T07:34:51;2.47;;;1.50;;
24619;SDS011;12763;55.802;37.404;2023-11-22T07:37:22;2.35;;;1.30;;
24619;SDS011;12763;55.802;37.404;2023-11-22T07:39:49;0.65;;;0.63;;
24619;SDS011;12763;55.802;37.404;2023-11-22T07:42:17;3.10;;;1.30;;
24619;SDS011;12763;55.802;37.404;2023-11-22T07:44:44;1.98;;;1.35;;
24619;SDS011;12763;55.802;37.404;2023-11-22T07:47:10;3.95;;;2.05;;
24619;SDS011;12763;55.802;37.404;2023-11-22T07:49:39;3.22;;;1.60;;
24619;SDS011;12763;55.802;37.404;2023-11-22T07:52:08;3.75;;;1.80;;
24619;SDS011;12763;55.802;37.404;2023-11-22T07:54:40;2.63;;;1.52;;
24619;SDS011;12763;55.802;37.404;2023-11-22T07:57:06;2.58;;;1.50;;
24619;SDS011;12763;55.802;37.404;2023-11-22T07:59:33;2.35;;;1.40;;
24619;SDS011;12763;55.802;37.404;2023-11-22T08:01:59;3.60;;;1.83;;
24619;SDS011;12763;55.802;37.404;2023-11-22T08:04:27;3.10;;;2.00;;
24619;SDS011;12763;55.802;37.404;2023-11-22T08:06:54;3.50;;;2.22;;
24619;SDS011;12763;55.802;37.404;2023-11-22T08:09:23;3.78;;;2.20;;
24619;SDS011;12763;55.802;37.404;2023-11-22T08:11:49;7.22;;;2.25;;
24619;SDS011;12763;55.802;37.404;2023-11-22T08:14:15;4.30;;;2.22;;
24619;SDS011;12763;55.802;37.404;2023-11-22T08:16:41;7.43;;;2.75;;
24619;SDS011;12763;55.802;37.404;2023-11-22T08:19:08;6.20;;;2.67;;
24619;SDS011;12763;55.802;37.404;2023-11-22T08:21:34;5.90;;;2.50;;
24619;SDS011;12763;55.802;37.404;2023-11-22T08:24:02;6.18;;;2.45;;
24619;SDS011;12763;55.802;37.404;2023-11-22T08:26:31;5.10;;;2.47;;
24619;SDS011;12763;55.802;37.404;2023-11-22T08:28:56;6.78;;;2.97;;
24619;SDS011;12763;55.802;37.404;2023-11-22T08:31:22;8.45;;;3.03;;
24619;SDS011;12763;55.802;37.404;2023-11-22T08:33:48;10.68;;;3.38;;
24619;SDS011;12763;55.802;37.404;2023-11-22T08:36:14;8.00;;;2.88;;
24619;SDS011;12763;55.802;37.404;2023-11-22T08:38:40;7.13;;;3.00;;
24619;SDS011;12763;55.802;37.404;2023-11-22T08:41:08;7.93;;;2.63;;
24619;SDS011;12763;55.802;37.404;2023-11-22T08:43:39;5.60;;;2.75;;
24619;SDS011;12763;55.802;37.404;2023-11-22T08:46:05;5.35;;;2.65;;
24619;SDS011;12763;55.802;37.404;2023-11-22T08:48:32;4.05;;;2.72;;
24619;SDS011;12763;55.802;37.404;2023-11-22T08:51:00;7.85;;;3.00;;
24619;SDS011;12763;55.802;37.404;2023-11-22T08:53:26;6.32;;;2.83;;
24619;SDS011;12763;55.802;37.404;2023-11-22T08:55:52;5.95;;;2.78;;
24619;SDS011;12763;55.802;37.404;2023-11-22T08:58:22;5.85;;;2.38;;
24619;SDS011;12763;55.802;37.404;2023-11-22T09:00:48;10.25;;;3.85;;
24619;SDS011;12763;55.802;37.404;2023-11-22T09:03:14;8.48;;;3.30;;
24619;SDS011;12763;55.802;37.404;2023-11-22T09:05:43;8.10;;;2.78;;
24619;SDS011;12763;55.802;37.404;2023-11-22T09:08:10;4.35;;;2.50;;
24619;SDS011;12763;55.802;37.404;2023-11-22T09:10:39;4.72;;;2.65;;
24619;SDS011;12763;55.802;37.404;2023-11-22T09:13:10;4.65;;;2.17;;
24619;SDS011;12763;55.802;37.404;2023-11-22T09:15:37;3.97;;;2.20;;
24619;SDS011;12763;55.802;37.404;2023-11-22T09:18:04;8.23;;;2.53;;
24619;SDS011;12763;55.802;37.404;2023-11-22T09:20:32;5.93;;;2.38;;
24619;SDS011;12763;55.802;37.404;2023-11-22T09:22:58;5.47;;;2.15;;
24619;SDS011;12763;55.802;37.404;2023-11-22T09:25:25;7.97;;;2.85;;
24619;SDS011;12763;55.802;37.404;2023-11-22T09:27:55;5.35;;;3.03;;
24619;SDS011;12763;55.802;37.404;2023-11-22T09:30:26;4.03;;;2.08;;
24619;SDS011;12763;55.802;37.404;2023-11-22T09:33:05;7.45;;;2.88;;
24619;SDS011;12763;55.802;37.404;2023-11-22T09:35:37;4.57;;;2.65;;
24619;SDS011;12763;55.802;37.404;2023-11-22T09:38:06;5.80;;;2.45;;
24619;SDS011;12763;55.802;37.404;2023-11-22T09:40:45;7.30;;;2.35;;
24619;SDS011;12763;55.802;37.404;2023-11-22T09:43:15;3.88;;;2.55;;
24619;SDS011;12763;55.802;37.404;2023-11-22T09:45:44;11.63;;;3.15;;
24619;SDS011;12763;55.802;37.404;2023-11-22T09:48:14;6.10;;;2.83;;
24619;SDS011;12763;55.802;37.404;2023-11-22T09:56:04;7.50;;;2.70;;
24619;SDS011;12763;55.802;37.404;2023-11-22T09:58:34;5.95;;;2.63;;
24619;SDS011;12763;55.802;37.404;2023-11-22T10:01:02;4.05;;;2.22;;
24619;SDS011;12763;55.802;37.404;2023-11-22T10:03:33;8.95;;;2.72;;
24619;SDS011;12763;55.802;37.404;2023-11-22T10:05:59;3.35;;;2.25;;
24619;SDS011;12763;55.802;37.404;2023-11-22T10:08:26;4.43;;;2.42;;
24619;SDS011;12763;55.802;37.404;2023-11-22T10:10:53;7.07;;;2.25;;
24619;SDS011;12763;55.802;37.404;2023-11-22T10:13:20;5.05;;;2.20;;
24619;SDS011;12763;55.802;37.404;2023-11-22T10:15:49;6.22;;;2.22;;
24619;SDS011;12763;55.802;37.404;2023-11-22T10:18:16;12.10;;;2.72;;
24619;SDS011;12763;55.802;37.404;2023-11-22T10:20:43;6.30;;;2.60;;
24619;SDS011;12763;55.802;37.404;2023-11-22T10:23:15;7.18;;;2.33;;
24619;SDS011;12763;55.802;37.404;2023-11-22T10:25:45;9.65;;;2.00;;
24619;SDS011;12763;55.802;37.404;2023-11-22T10:28:15;5.30;;;2.30;;
24619;SDS011;12763;55.802;37.404;2023-11-22T10:30:48;15.55;;;2.60;;
24619;SDS011;12763;55.802;37.404;2023-11-22T10:33:18;5.40;;;2.03;;
24619;SDS011;12763;55.802;37.404;2023-11-22T10:35:49;4.40;;;1.90;;
24619;SDS011;12763;55.802;37.404;2023-11-22T10:38:19;4.45;;;2.13;;
24619;SDS011;12763;55.802;37.404;2023-11-22T10:40:46;5.78;;;2.47;;
24619;SDS011;12763;55.802;37.404;2023-11-22T10:43:14;7.03;;;2.97;;
24619;SDS011;12763;55.802;37.404;2023-11-22T10:45:41;4.45;;;2.05;;
24619;SDS011;12763;55.802;37.404;2023-11-22T10:48:15;5.43;;;2.30;;
24619;SDS011;12763;55.802;37.404;2023-11-22T10:50:42;5.25;;;2.45;;
24619;SDS011;12763;55.802;37.404;2023-11-22T10:53:11;6.35;;;2.95;;
24619;SDS011;12763;55.802;37.404;2023-11-22T10:55:41;5.45;;;2.60;;
24619;SDS011;12763;55.802;37.404;2023-11-22T10:58:10;4.30;;;2.10;;
24619;SDS011;12763;55.802;37.404;2023-11-22T11:00:36;6.15;;;1.90;;
24619;SDS011;12763;55.802;37.404;2023-11-22T11:03:19;3.25;;;1.80;;
24619;SDS011;12763;55.802;37.404;2023-11-22T11:05:58;5.45;;;2.00;;
24619;SDS011;12763;55.802;37.404;2023-11-22T11:08:29;5.32;;;2.58;;
24619;SDS011;12763;55.802;37.404;2023-11-22T11:10:56;5.07;;;2.22;;
24619;SDS011;12763;55.802;37.404;2023-11-22T11:13:24;4.15;;;2.30;;
24619;SDS011;12763;55.802;37.404;2023-11-22T11:15:51;4.45;;;2.30;;
24619;SDS011;12763;55.802;37.404;2023-11-22T11:18:18;4.53;;;2.40;;
24619;SDS011;12763;55.802;37.404;2023-11-22T11:23:16;8.95;;;2.83;;
24619;SDS011;12763;55.802;37.404;2023-11-22T11:25:49;7.72;;;2.45;;
24619;SDS011;12763;55.802;37.404;2023-11-22T11:28:15;6.32;;;2.67;;
24619;SDS011;12763;55.802;37.404;2023-11-22T11:30:46;8.93;;;2.97;;
24619;SDS011;12763;55.802;37.404;2023-11-22T11:33:15;4.53;;;2.45;;
24619;SDS011;12763;55.802;37.404;2023-11-22T11:35:44;8.55;;;2.88;;
24619;SDS011;12763;55.802;37.404;2023-11-22T11:38:13;6.75;;;3.15;;
24619;SDS011;12763;55.802;37.404;2023-11-22T11:40:40;6.28;;;2.83;;
24619;SDS011;12763;55.802;37.404;2023-11-22T11:43:08;9.35;;;2.80;;
24619;SDS011;12763;55.802;37.404;2023-11-22T11:45:36;6.15;;;2.47;;
24619;SDS011;12763;55.802;37.404;2023-11-22T11:48:05;6.13;;;2.78;;
24619;SDS011;12763;55.802;37.404;2023-11-22T11:50:32;6.25;;;2.53;;
24619;SDS011;12763;55.802;37.404;2023-11-22T11:52:58;4.82;;;2.28;;
24619;SDS011;12763;55.802;37.404;2023-11-22T11:55:25;5.22;;;2.85;;
24619;SDS011;12763;55.802;37.404;2023-11-22T11:57:55;9.45;;;2.80;;
24619;SDS011;12763;55.802;37.404;2023-11-22T12:00:22;7.93;;;3.38;;
24619;SDS011;12763;55.802;37.404;2023-11-22T12:02:53;6.97;;;3.30;;
24619;SDS011;12763;55.802;37.404;2023-11-22T12:05:19;7.63;;;4.30;;
24619;SDS011;12763;55.802;37.404;2023-11-22T12:07:46;7.85;;;3.30;;
24619;SDS011;12763;55.802;37.404;2023-11-22T12:10:13;7.53;;;2.92;;
24619;SDS011;12763;55.802;37.404;2023-11-22T12:12:38;8.93;;;3.28;;
24619;SDS011;12763;55.802;37.404;2023-11-22T12:15:04;3.50;;;2.08;;
24619;SDS011;12763;55.802;37.404;2023-11-22T12:17:35;8.57;;;3.03;;
24619;SDS011;12763;55.802;37.404;2023-11-22T12:20:14;6.88;;;3.15;;
24619;SDS011;12763;55.802;37.404;2023-11-22T12:22:45;6.45;;;2.85;;
24619;SDS011;12763;55.802;37.404;2023-11-22T12:25:13;4.15;;;1.83;;
24619;SDS011;12763;55.802;37.404;2023-11-22T12:27:42;11.57;;;2.58;;
24619;SDS011;12763;55.802;37.404;2023-11-22T12:33:06;4.78;;;2.17;;
24619;SDS011;12763;55.802;37.404;2023-11-22T12:35:33;7.15;;;3.00;;
24619;SDS011;12763;55.802;37.404;2023-11-22T12:38:01;6.72;;;2.55;;
24619;SDS011;12763;55.802;37.404;2023-11-22T12:40:32;6.93;;;3.15;;
24619;SDS011;12763;55.802;37.404;2023-11-22T12:42:59;15.45;;;4.63;;
24619;SDS011;12763;55.802;37.404;2023-11-22T12:45:28;9.20;;;3.05;;
24619;SDS011;12763;55.802;37.404;2023-11-22T12:47:57;10.82;;;4.28;;
24619;SDS011;12763;55.802;37.404;2023-11-22T12:53:09;7.32;;;3.15;;
24619;SDS011;12763;55.802;37.404;2023-11-22T12:55:42;12.73;;;4.00;;
24619;SDS011;12763;55.802;37.404;2023-11-22T12:58:13;6.93;;;2.00;;
24619;SDS011;12763;55.802;37.404;2023-11-22T13:00:40;7.35;;;2.45;;
24619;SDS011;12763;55.802;37.404;2023-11-22T13:03:07;9.00;;;3.78;;
24619;SDS011;12763;55.802;37.404;2023-11-22T13:05:36;8.45;;;3.90;;
24619;SDS011;12763;55.802;37.404;2023-11-22T13:08:03;8.02;;;2.35;;
24619;SDS011;12763;55.802;37.404;2023-11-22T13:10:29;7.72;;;3.63;;
24619;SDS011;12763;55.802;37.404;2023-11-22T13:12:56;8.40;;;4.03;;
24619;SDS011;12763;55.802;37.404;2023-11-22T13:15:22;13.27;;;3.88;;
24619;SDS011;12763;55.802;37.404;2023-11-22T13:17:54;13.48;;;3.70;;
24619;SDS011;12763;55.802;37.404;2023-11-22T13:20:24;9.23;;;3.65;;
24619;SDS011;12763;55.802;37.404;2023-11-22T13:22:54;14.00;;;3.65;;
24619;SDS011;12763;55.802;37.404;2023-11-22T13:25:21;8.15;;;3.53;;
24619;SDS011;12763;55.802;37.404;2023-11-22T13:27:50;12.27;;;4.47;;
24619;SDS011;12763;55.802;37.404;2023-11-22T13:30:19;6.63;;;3.13;;
24619;SDS011;12763;55.802;37.404;2023-11-22T13:32:49;9.80;;;3.92;;
24619;SDS011;12763;55.802;37.404;2023-11-22T13:35:16;8.70;;;3.40;;
24619;SDS011;12763;55.802;37.404;2023-11-22T13:37:44;6.55;;;2.88;;
24619;SDS011;12763;55.802;37.404;2023-11-22T13:40:11;8.88;;;3.38;;
24619;SDS011;12763;55.802;37.404;2023-11-22T13:45:12;10.15;;;3.67;;
24619;SDS011;12763;55.802;37.404;2023-11-22T13:47:44;10.68;;;3.25;;
24619;SDS011;12763;55.802;37.404;2023-11-22T13:50:13;8.50;;;4.45;;
24619;SDS011;12763;55.802;37.404;2023-11-22T13:52:40;5.60;;;2.60;;
24619;SDS011;12763;55.802;37.404;2023-11-22T13:55:06;9.77;;;3.65;;
24619;SDS011;12763;55.802;37.404;2023-11-22T13:57:38;9.90;;;4.07;;
24619;SDS011;12763;55.802;37.404;2023-11-22T14:00:07;9.07;;;3.35;;
24619;SDS011;12763;55.802;37.404;2023-11-22T14:02:46;10.07;;;3.38;;
24619;SDS011;12763;55.802;37.404;2023-11-22T14:05:12;3.70;;;2.17;;
24619;SDS011;12763;55.802;37.404;2023-11-22T14:07:38;7.43;;;3.30;;
24619;SDS011;12763;55.802;37.404;2023-11-22T14:10:04;14.70;;;3.15;;
24619;SDS011;12763;55.802;37.404;2023-11-22T14:12:31;12.77;;;4.20;;
24619;SDS011;12763;55.802;37.404;2023-11-22T14:14:58;7.65;;;2.80;;
24619;SDS011;12763;55.802;37.404;2023-11-22T14:17:25;16.17;;;4.07;;
24619;SDS011;12763;55.802;37.404;2023-11-22T14:19:54;14.25;;;3.83;;
24619;SDS011;12763;55.802;37.404;2023-11-22T14:22:23;11.10;;;3.80;;
24619;SDS011;12763;55.802;37.404;2023-11-22T14:24:50;6.20;;;2.90;;
24619;SDS011;12763;55.802;37.404;2023-11-22T14:27:19;11.75;;;3.70;;
24619;SDS011;12763;55.802;37.404;2023-11-22T14:29:46;21.08;;;4.72;;
24619;SDS011;12763;55.802;37.404;2023-11-22T14:32:14;9.95;;;4.43;;
24619;SDS011;12763;55.802;37.404;2023-11-22T14:34:44;9.63;;;4.10;;
24619;SDS011;12763;55.802;37.404;2023-11-22T14:37:10;15.05;;;4.75;;
24619;SDS011;12763;55.802;37.404;2023-11-22T14:39:37;11.27;;;3.95;;
24619;SDS011;12763;55.802;37.404;2023-11-22T14:42:04;6.72;;;3.25;;
24619;SDS011;12763;55.802;37.404;2023-11-22T14:44:36;11.98;;;4.25;;
24619;SDS011;12763;55.802;37.404;2023-11-22T14:47:03;10.50;;;4.72;;
24619;SDS011;12763;55.802;37.404;2023-11-22T14:49:38;14.93;;;4.70;;